createdAt,value
2022-12-20T00:01:28.168Z,9.90
2022-12-20T00:03:56.708Z,9.80
2022-12-20T00:06:24.824Z,9.90
2022-12-20T00:09:00.304Z,9.90
2022-12-20T00:11:28.069Z,10.00
2022-12-20T00:13:54.872Z,10.00
2022-12-20T00:16:24.325Z,10.00
2022-12-20T00:18:59.441Z,10.10
2022-12-20T00:21:27.558Z,10.10
2022-12-20T00:23:55.052Z,10.20
2022-12-20T00:26:25.600Z,10.20
2022-12-20T00:28:52.860Z,10.20
2022-12-20T00:31:20.805Z,10.20
2022-12-20T00:33:50.119Z,10.30
2022-12-20T00:36:18.247Z,10.30
2022-12-20T00:38:49.404Z,10.30
2022-12-20T00:41:19.057Z,10.30
2022-12-20T00:43:45.933Z,10.30
2022-12-20T00:46:14.459Z,10.40
2022-12-20T00:48:41.476Z,10.40
2022-12-20T00:51:13.512Z,10.40
2022-12-20T00:53:41.107Z,10.40
2022-12-20T00:56:08.744Z,10.40
2022-12-20T00:58:38.134Z,10.40
2022-12-20T01:01:14.400Z,10.50
2022-12-20T01:03:41.231Z,10.60
2022-12-20T01:06:08.181Z,10.60
2022-12-20T01:08:34.943Z,10.70
2022-12-20T01:11:04.535Z,10.70
2022-12-20T01:13:31.880Z,10.70
2022-12-20T01:16:05.226Z,10.80
2022-12-20T01:18:33.015Z,10.90
2022-12-20T01:21:05.742Z,10.90
2022-12-20T01:23:32.968Z,10.90
2022-12-20T01:26:04.975Z,11.00
2022-12-20T01:28:32.748Z,11.10
2022-12-20T01:31:00.043Z,11.10
2022-12-20T01:33:27.066Z,11.10
2022-12-20T01:36:02.113Z,11.20
2022-12-20T01:38:29.261Z,11.20
2022-12-20T01:40:57.476Z,11.20
2022-12-20T01:43:26.084Z,11.20
2022-12-20T01:45:52.933Z,11.30
2022-12-20T01:48:25.631Z,11.30
2022-12-20T01:50:53.272Z,11.30
2022-12-20T01:53:23.351Z,11.30
2022-12-20T01:55:50.154Z,11.30
2022-12-20T01:58:18.852Z,11.30
2022-12-20T02:00:46.155Z,11.30
2022-12-20T02:03:14.323Z,11.20
2022-12-20T02:05:48.150Z,11.20
2022-12-20T02:08:18.830Z,11.10
2022-12-20T02:11:12.033Z,11.10
2022-12-20T02:13:55.680Z,11.00
2022-12-20T02:16:27.878Z,11.00
2022-12-20T02:19:04.515Z,11.00
2022-12-20T02:21:39.230Z,10.90
2022-12-20T02:24:11.628Z,10.90
2022-12-20T02:27:04.485Z,10.90
2022-12-20T02:29:43.382Z,10.80
2022-12-20T02:32:22.424Z,10.80
2022-12-20T02:34:50.655Z,10.70
2022-12-20T02:37:17.337Z,10.70
2022-12-20T02:39:45.724Z,10.60
2022-12-20T02:42:21.448Z,10.60
2022-12-20T02:45:18.026Z,10.60
2022-12-20T02:47:49.215Z,10.60
2022-12-20T02:50:31.935Z,10.60
2022-12-20T02:53:00.132Z,10.60
2022-12-20T02:55:41.892Z,10.60
2022-12-20T02:58:42.726Z,10.50
2022-12-20T03:01:16.349Z,10.50
2022-12-20T03:03:43.893Z,10.50
2022-12-20T03:06:10.768Z,10.50
2022-12-20T03:08:37.443Z,10.40
2022-12-20T03:11:04.212Z,10.40
2022-12-20T03:13:30.932Z,10.50
2022-12-20T03:15:57.741Z,10.40
2022-12-20T03:18:24.437Z,10.40
2022-12-20T03:20:51.157Z,10.40
2022-12-20T03:23:17.894Z,10.40
2022-12-20T03:25:44.568Z,10.40
2022-12-20T03:28:11.276Z,10.40
2022-12-20T03:30:38.166Z,10.40
2022-12-20T03:33:04.969Z,10.50
2022-12-20T03:35:31.683Z,10.50
2022-12-20T03:37:58.528Z,10.50
2022-12-20T03:40:25.185Z,10.50
2022-12-20T03:42:51.912Z,10.50
2022-12-20T03:45:18.645Z,10.50
2022-12-20T03:47:45.342Z,10.40
2022-12-20T03:50:12.469Z,10.40
2022-12-20T03:52:39.349Z,10.40
2022-12-20T03:55:06.879Z,10.30
2022-12-20T03:57:33.571Z,10.30
2022-12-20T04:00:00.252Z,10.30
2022-12-20T04:02:27.176Z,10.30
2022-12-20T04:04:54.023Z,10.30
2022-12-20T04:07:20.694Z,10.30
2022-12-20T04:09:47.412Z,10.20
2022-12-20T04:12:14.146Z,10.20
2022-12-20T04:14:40.919Z,10.20
2022-12-20T04:17:07.684Z,10.20
2022-12-20T04:19:34.414Z,10.20
2022-12-20T04:22:05.375Z,10.20
2022-12-20T04:24:32.881Z,10.20
2022-12-20T04:26:59.554Z,10.30
2022-12-20T04:29:26.288Z,10.30
2022-12-20T04:31:52.988Z,10.40
2022-12-20T04:34:19.719Z,10.40
2022-12-20T04:36:46.411Z,10.40
2022-12-20T04:39:13.085Z,10.40
2022-12-20T04:41:39.814Z,10.40
2022-12-20T04:44:06.629Z,10.40
2022-12-20T04:46:33.519Z,10.50
2022-12-20T04:49:00.405Z,10.50
2022-12-20T04:51:28.204Z,10.50
2022-12-20T04:53:55.775Z,10.60
2022-12-20T04:56:24.939Z,10.60
2022-12-20T04:58:53.825Z,10.60
2022-12-20T05:01:21.945Z,10.60
2022-12-20T05:03:49.509Z,10.60
2022-12-20T05:06:17.285Z,10.70
2022-12-20T05:08:44.213Z,10.70
2022-12-20T05:11:11.597Z,10.70
2022-12-20T05:13:38.479Z,10.70
2022-12-20T05:16:05.860Z,10.80
2022-12-20T05:18:32.832Z,10.80
2022-12-20T05:21:19.916Z,10.80
2022-12-20T05:24:05.950Z,10.80
2022-12-20T05:26:35.652Z,10.90
2022-12-20T05:29:02.763Z,10.90
2022-12-20T05:31:29.495Z,10.90
2022-12-20T05:33:56.447Z,10.90
2022-12-20T05:36:23.167Z,10.90
2022-12-20T05:38:50.065Z,10.90
2022-12-20T05:41:16.729Z,11.00
2022-12-20T05:43:43.401Z,11.00
2022-12-20T05:46:10.769Z,11.00
2022-12-20T05:48:37.901Z,11.00
2022-12-20T05:51:04.878Z,11.00
2022-12-20T05:53:31.805Z,11.00
2022-12-20T05:55:59.536Z,10.80
2022-12-20T05:58:26.298Z,11.00
2022-12-20T06:00:53.057Z,10.90
2022-12-20T06:03:19.992Z,10.90
2022-12-20T06:05:46.911Z,10.90
2022-12-20T06:08:14.202Z,11.00
2022-12-20T06:10:42.048Z,10.90
2022-12-20T06:13:10.098Z,10.90
2022-12-20T06:15:38.118Z,10.90
2022-12-20T06:18:05.956Z,10.90
2022-12-20T06:20:36.587Z,10.90
2022-12-20T06:23:04.270Z,10.90
2022-12-20T06:25:31.505Z,10.90
2022-12-20T06:27:58.442Z,10.90
2022-12-20T06:30:30.294Z,10.90
2022-12-20T06:33:00.543Z,10.90
2022-12-20T06:35:27.457Z,10.90
2022-12-20T06:37:54.232Z,10.90
2022-12-20T06:40:21.021Z,10.90
2022-12-20T06:42:47.692Z,11.20
2022-12-20T06:45:14.343Z,11.20
2022-12-20T06:47:41.063Z,11.10
2022-12-20T06:50:08.513Z,11.10
2022-12-20T06:52:35.370Z,11.00
2022-12-20T06:55:02.034Z,11.00
2022-12-20T06:57:28.747Z,11.00
2022-12-20T06:59:55.415Z,10.90
2022-12-20T07:02:23.543Z,10.90
2022-12-20T07:04:51.967Z,10.90
2022-12-20T07:07:18.658Z,10.90
2022-12-20T07:09:45.494Z,10.90
2022-12-20T07:12:12.315Z,10.90
2022-12-20T07:14:39.036Z,10.90
2022-12-20T07:17:07.526Z,10.90
2022-12-20T07:19:36.444Z,10.90
2022-12-20T07:22:05.474Z,10.80
2022-12-20T07:24:34.266Z,10.80
2022-12-20T07:27:02.060Z,10.80
2022-12-20T07:29:38.697Z,10.80
2022-12-20T07:32:06.105Z,10.70
2022-12-20T07:34:32.882Z,10.70
2022-12-20T07:36:59.609Z,10.70
2022-12-20T07:39:26.460Z,10.70
2022-12-20T07:41:57.991Z,10.70
2022-12-20T07:44:27.936Z,10.70
2022-12-20T07:46:54.619Z,10.70
2022-12-20T07:49:22.119Z,10.70
2022-12-20T07:51:56.113Z,10.70
2022-12-20T07:54:27.352Z,10.70
2022-12-20T07:56:59.469Z,10.70
2022-12-20T07:59:30.377Z,10.70
2022-12-20T08:02:03.932Z,10.80
2022-12-20T08:04:33.219Z,10.80
2022-12-20T08:07:01.370Z,10.70
2022-12-20T08:09:37.444Z,10.80
2022-12-20T08:12:04.476Z,10.80
2022-12-20T08:14:32.018Z,10.80
2022-12-20T08:16:58.727Z,10.80
2022-12-20T08:19:31.850Z,10.80
2022-12-20T08:21:59.063Z,10.80
2022-12-20T08:24:25.848Z,10.90
2022-12-20T08:26:52.512Z,10.90
2022-12-20T08:29:19.275Z,10.90
2022-12-20T08:31:50.035Z,10.90
2022-12-20T08:34:17.469Z,11.00
2022-12-20T08:36:44.252Z,11.00
2022-12-20T08:39:11.631Z,11.00
2022-12-20T08:41:38.585Z,11.00
2022-12-20T08:44:06.396Z,11.00
2022-12-20T08:46:33.277Z,11.00
2022-12-20T08:49:00.087Z,11.10
2022-12-20T08:51:26.845Z,11.10
2022-12-20T08:53:53.615Z,11.10
2022-12-20T08:56:20.355Z,11.10
2022-12-20T08:58:47.184Z,11.20
2022-12-20T09:01:16.707Z,11.20
2022-12-20T09:03:43.774Z,11.30
2022-12-20T09:06:17.330Z,11.30
2022-12-20T09:08:44.264Z,11.30
2022-12-20T09:11:19.148Z,11.30
2022-12-20T09:13:47.877Z,11.30
2022-12-20T09:16:18.206Z,11.30
2022-12-20T09:18:51.023Z,11.30
2022-12-20T09:21:18.890Z,11.20
2022-12-20T09:23:46.091Z,11.20
2022-12-20T09:26:15.003Z,11.20
2022-12-20T09:28:43.140Z,11.20
2022-12-20T09:31:13.450Z,11.20
2022-12-20T09:33:40.642Z,11.10
2022-12-20T09:36:10.570Z,11.10
2022-12-20T09:38:37.209Z,11.10
2022-12-20T09:41:06.791Z,11.10
2022-12-20T09:43:34.425Z,11.10
2022-12-20T09:46:03.094Z,11.10
2022-12-20T09:48:36.926Z,11.10
2022-12-20T09:51:34.425Z,11.10
2022-12-20T09:54:27.059Z,11.10
2022-12-20T09:57:02.632Z,11.00
2022-12-20T09:59:32.936Z,11.00
2022-12-20T10:02:26.567Z,11.00
2022-12-20T10:04:50.012Z,11.00
2022-12-20T10:07:22.989Z,11.00
2022-12-20T10:10:31.378Z,11.00
2022-12-20T10:13:08.870Z,11.00
2022-12-20T10:15:41.223Z,11.00
2022-12-20T10:18:32.866Z,11.00
2022-12-20T10:21:17.799Z,11.00
2022-12-20T10:24:01.502Z,11.00
2022-12-20T10:26:29.127Z,11.00
2022-12-20T10:28:56.093Z,11.00
2022-12-20T10:31:23.488Z,11.00
2022-12-20T10:33:50.302Z,11.00
2022-12-20T10:36:23.287Z,10.90
2022-12-20T10:38:52.490Z,11.00
2022-12-20T10:41:23.360Z,10.90
2022-12-20T10:44:01.033Z,10.90
2022-12-20T10:46:44.854Z,10.90
2022-12-20T10:49:26.816Z,10.90
2022-12-20T10:51:55.533Z,10.90
2022-12-20T10:54:35.441Z,10.90
2022-12-20T10:57:17.073Z,10.90
2022-12-20T10:59:48.792Z,10.90
2022-12-20T11:02:21.445Z,10.90
2022-12-20T11:05:00.930Z,10.90
2022-12-20T11:07:31.169Z,10.90
2022-12-20T11:10:04.085Z,10.90
2022-12-20T11:12:30.928Z,11.00
2022-12-20T11:15:20.580Z,10.90
2022-12-20T11:18:07.103Z,11.00
2022-12-20T11:20:44.691Z,11.00
2022-12-20T11:23:33.167Z,11.00
2022-12-20T11:26:26.273Z,11.00
2022-12-20T11:29:30.994Z,11.00
2022-12-20T11:32:05.259Z,11.00
2022-12-20T11:35:05.870Z,11.00
2022-12-20T11:37:43.055Z,11.00
2022-12-20T11:40:22.924Z,11.00
2022-12-20T11:43:12.746Z,11.00
2022-12-20T11:45:48.626Z,11.00
2022-12-20T11:48:18.135Z,11.00
2022-12-20T11:50:58.665Z,11.00
2022-12-20T11:53:52.631Z,11.10
2022-12-20T11:56:28.080Z,11.10
2022-12-20T11:59:01.883Z,11.10
2022-12-20T12:01:41.003Z,11.10
2022-12-20T12:04:14.184Z,11.10
2022-12-20T12:06:48.363Z,11.10
2022-12-20T12:09:45.977Z,11.10
2022-12-20T12:12:37.219Z,11.10
2022-12-20T12:15:17.326Z,11.10
2022-12-20T12:18:03.144Z,11.10
2022-12-20T12:20:50.771Z,11.20
2022-12-20T12:23:29.577Z,11.20
2022-12-20T12:25:59.268Z,11.20
2022-12-20T12:28:26.037Z,11.20
2022-12-20T12:31:08.592Z,11.20
2022-12-20T12:33:42.109Z,11.20
2022-12-20T12:36:31.342Z,11.20
2022-12-20T12:39:13.391Z,11.20
2022-12-20T12:42:11.445Z,11.20
2022-12-20T12:44:49.333Z,11.30
2022-12-20T12:47:40.345Z,11.30
2022-12-20T12:50:22.879Z,11.30
2022-12-20T12:53:04.520Z,11.30
2022-12-20T12:55:44.126Z,11.30
2022-12-20T12:58:22.912Z,11.30
2022-12-20T13:01:12.017Z,11.30
2022-12-20T13:03:54.419Z,11.30
2022-12-20T13:06:25.266Z,11.30
2022-12-20T13:09:04.016Z,11.30
2022-12-20T13:11:36.657Z,11.40
2022-12-20T13:14:15.480Z,11.40
2022-12-20T13:17:10.962Z,11.40
2022-12-20T13:19:29.100Z,11.40
2022-12-20T13:21:57.713Z,11.40
2022-12-20T13:24:58.458Z,11.40
2022-12-20T13:27:37.324Z,11.40
2022-12-20T13:30:17.308Z,11.40
2022-12-20T13:32:47.197Z,11.40
2022-12-20T13:35:27.118Z,11.40
2022-12-20T13:38:07.118Z,11.40
2022-12-20T13:40:43.744Z,11.40
2022-12-20T13:43:19.469Z,11.40
2022-12-20T13:45:49.746Z,11.40
2022-12-20T13:48:22.921Z,11.40
2022-12-20T13:50:53.077Z,11.40
2022-12-20T13:53:24.215Z,11.40
2022-12-20T13:55:51.472Z,11.40
2022-12-20T13:58:22.559Z,11.40
2022-12-20T14:00:50.754Z,11.40
2022-12-20T14:03:29.625Z,11.40
2022-12-20T14:06:03.322Z,11.40
2022-12-20T14:08:36.208Z,11.40
2022-12-20T14:11:14.327Z,11.40
2022-12-20T14:13:42.223Z,11.30
2022-12-20T14:16:17.741Z,11.40
2022-12-20T14:19:14.914Z,11.40
2022-12-20T14:21:45.066Z,11.40
2022-12-20T14:24:18.631Z,11.30
2022-12-20T14:26:51.508Z,11.30
2022-12-20T14:29:28.525Z,11.30
2022-12-20T14:31:55.634Z,11.30
2022-12-20T14:34:30.081Z,11.30
2022-12-20T14:37:20.880Z,11.30
2022-12-20T14:39:59.263Z,11.30
2022-12-20T14:42:36.050Z,11.30
2022-12-20T14:45:25.762Z,11.30
2022-12-20T14:48:16.280Z,11.30
2022-12-20T14:50:53.274Z,11.30
2022-12-20T14:53:25.297Z,11.30
2022-12-20T14:55:52.791Z,11.30
2022-12-20T14:58:32.266Z,11.30
2022-12-20T15:01:19.777Z,11.30
2022-12-20T15:03:52.598Z,11.30
2022-12-20T15:06:48.155Z,11.30
2022-12-20T15:09:16.542Z,11.30
2022-12-20T15:11:46.072Z,11.20
2022-12-20T15:14:28.595Z,11.30
2022-12-20T15:16:55.350Z,11.30
2022-12-20T15:19:22.107Z,11.30
2022-12-20T15:21:49.146Z,11.30
2022-12-20T15:24:22.595Z,11.30
2022-12-20T15:26:50.086Z,11.30
2022-12-20T15:29:23.646Z,11.30
2022-12-20T15:31:52.080Z,11.20
2022-12-20T15:34:31.087Z,11.20
2022-12-20T15:37:00.158Z,11.20
2022-12-20T15:39:27.698Z,11.20
2022-12-20T15:41:54.840Z,11.20
2022-12-20T15:44:24.209Z,11.20
2022-12-20T15:46:51.840Z,11.20
2022-12-20T15:49:24.081Z,11.20
2022-12-20T15:51:53.133Z,11.20
2022-12-20T15:54:30.309Z,11.20
2022-12-20T15:57:00.357Z,11.20
2022-12-20T16:02:27.261Z,11.10
2022-12-20T16:04:55.211Z,11.10
2022-12-20T16:07:22.845Z,11.10
2022-12-20T16:09:49.897Z,11.10
2022-12-20T16:12:19.949Z,11.10
2022-12-20T16:14:46.798Z,11.00
2022-12-20T16:17:14.409Z,11.10
2022-12-20T16:19:45.859Z,11.10
2022-12-20T16:22:18.124Z,11.10
2022-12-20T16:24:45.634Z,11.10
2022-12-20T16:27:12.544Z,11.10
2022-12-20T16:29:39.325Z,11.10
2022-12-20T16:32:17.182Z,11.10
2022-12-20T16:34:44.335Z,11.10
2022-12-20T16:37:14.241Z,11.10
2022-12-20T16:39:41.766Z,11.00
2022-12-20T16:42:16.266Z,11.00
2022-12-20T16:44:45.587Z,11.10
2022-12-20T16:47:13.886Z,11.00
2022-12-20T16:49:47.243Z,11.00
2022-12-20T16:52:19.233Z,11.10
2022-12-20T16:54:46.135Z,11.10
2022-12-20T16:57:13.064Z,11.10
2022-12-20T16:59:39.803Z,11.10
2022-12-20T17:02:26.417Z,11.10
2022-12-20T17:04:53.508Z,11.10
2022-12-20T17:07:20.652Z,11.10
2022-12-20T17:12:31.572Z,11.00
2022-12-20T17:14:58.424Z,11.00
2022-12-20T17:17:25.353Z,11.00
2022-12-20T17:19:52.233Z,11.00
2022-12-20T17:25:03.828Z,11.00
2022-12-20T17:27:30.545Z,11.00
2022-12-20T17:29:57.347Z,11.00
2022-12-20T17:32:26.038Z,11.10
2022-12-20T17:34:53.729Z,11.10
2022-12-20T17:37:21.484Z,11.10
2022-12-20T17:39:48.737Z,11.00
2022-12-20T17:42:16.853Z,11.00
2022-12-20T17:44:43.841Z,11.00
2022-12-20T17:47:11.800Z,11.10
2022-12-20T17:49:38.922Z,11.00
2022-12-20T17:52:05.670Z,11.10
2022-12-20T17:54:39.523Z,11.00
2022-12-20T17:57:16.479Z,11.00
2022-12-20T17:59:43.811Z,11.00
2022-12-20T18:02:20.739Z,11.00
2022-12-20T18:04:47.712Z,11.10
2022-12-20T18:07:14.549Z,11.00
2022-12-20T18:09:41.211Z,11.00
2022-12-20T18:12:10.059Z,11.10
2022-12-20T18:14:36.814Z,11.00
2022-12-20T18:17:03.667Z,11.00
2022-12-20T18:19:30.444Z,11.00
2022-12-20T18:21:58.132Z,11.00
2022-12-20T18:24:24.932Z,11.00
2022-12-20T18:26:51.844Z,10.90
2022-12-20T18:29:18.604Z,10.90
2022-12-20T18:31:45.448Z,11.00
2022-12-20T18:34:12.196Z,10.90
2022-12-20T18:36:39.069Z,10.90
2022-12-20T18:39:07.695Z,10.90
2022-12-20T18:41:35.228Z,11.00
2022-12-20T18:44:04.738Z,11.00
2022-12-20T18:46:31.824Z,11.00
2022-12-20T18:49:00.424Z,11.00
2022-12-20T18:51:33.131Z,11.00
2022-12-20T18:54:00.721Z,10.90
2022-12-20T18:56:30.892Z,10.90
2022-12-20T18:59:04.528Z,10.90
2022-12-20T19:01:37.913Z,10.90
2022-12-20T19:04:07.281Z,10.90
2022-12-20T19:06:34.469Z,10.90
2022-12-20T19:09:07.122Z,10.90
2022-12-20T19:11:34.068Z,10.90
2022-12-20T19:14:00.903Z,10.90
2022-12-20T19:16:30.465Z,10.90
2022-12-20T19:18:58.532Z,10.90
2022-12-20T19:21:27.914Z,10.90
2022-12-20T19:23:57.342Z,10.90
2022-12-20T19:26:29.925Z,10.90
2022-12-20T19:28:57.458Z,10.80
2022-12-20T19:31:28.462Z,10.80
2022-12-20T19:33:59.460Z,10.80
2022-12-20T19:36:43.694Z,10.80
2022-12-20T19:39:23.406Z,10.80
2022-12-20T19:42:21.400Z,10.90
2022-12-20T19:44:38.411Z,10.80
2022-12-20T19:47:05.294Z,10.80
2022-12-20T19:49:32.190Z,10.80
2022-12-20T19:51:58.876Z,10.70
2022-12-20T19:54:25.692Z,10.80
2022-12-20T19:56:52.373Z,10.70
2022-12-20T19:59:19.215Z,10.70
2022-12-20T20:01:46.110Z,10.70
2022-12-20T20:04:12.920Z,10.70
2022-12-20T20:06:39.596Z,10.70
2022-12-20T20:09:06.266Z,10.70
2022-12-20T20:11:33.035Z,10.70
2022-12-20T20:14:02.230Z,10.70
2022-12-20T20:16:29.070Z,10.70
2022-12-20T20:18:56.955Z,10.70
2022-12-20T20:21:23.927Z,10.70
2022-12-20T20:23:52.422Z,10.70
2022-12-20T20:26:23.777Z,10.70
2022-12-20T20:28:50.840Z,10.70
2022-12-20T20:31:18.783Z,10.70
2022-12-20T20:33:47.008Z,10.70
2022-12-20T20:36:16.000Z,10.70
2022-12-20T20:38:43.065Z,10.80
2022-12-20T20:41:10.633Z,10.80
2022-12-20T20:43:37.991Z,10.80
2022-12-20T20:46:07.674Z,10.80
2022-12-20T20:48:35.021Z,10.80
2022-12-20T20:51:01.816Z,10.80
2022-12-20T20:53:33.442Z,10.70
2022-12-20T20:56:04.855Z,10.70
2022-12-20T20:58:32.828Z,10.80
2022-12-20T21:01:02.433Z,10.70
2022-12-20T21:03:31.788Z,10.70
2022-12-20T21:08:45.574Z,10.70
2022-12-20T21:11:12.945Z,10.80
2022-12-20T21:13:39.889Z,10.80
2022-12-20T21:16:16.126Z,10.80
2022-12-20T21:18:42.930Z,10.80
2022-12-20T21:21:12.043Z,10.90
2022-12-20T21:23:43.142Z,10.80
2022-12-20T21:26:09.794Z,10.80
2022-12-20T21:28:36.516Z,10.80
2022-12-20T21:31:05.610Z,10.80
2022-12-20T21:33:32.541Z,10.70
2022-12-20T21:36:08.044Z,10.70
2022-12-20T21:38:35.211Z,10.70
2022-12-20T21:41:07.944Z,10.70
2022-12-20T21:43:35.035Z,10.70
2022-12-20T21:46:02.348Z,10.60
2022-12-20T21:48:29.785Z,10.60
2022-12-20T21:51:10.065Z,10.60
2022-12-20T21:53:42.704Z,10.60
2022-12-20T21:56:09.445Z,10.60
2022-12-20T21:58:36.292Z,10.60
2022-12-20T22:01:05.007Z,10.60
2022-12-20T22:03:31.949Z,10.60
2022-12-20T22:05:58.710Z,10.60
2022-12-20T22:08:27.481Z,10.60
2022-12-20T22:11:07.224Z,10.60
2022-12-20T22:13:41.146Z,10.60
2022-12-20T22:16:10.812Z,10.50
2022-12-20T22:18:38.775Z,10.50
2022-12-20T22:21:07.858Z,10.50
2022-12-20T22:23:34.820Z,10.50
2022-12-20T22:26:06.874Z,10.40
2022-12-20T22:28:33.971Z,10.40
2022-12-20T22:31:00.681Z,10.40
2022-12-20T22:33:27.418Z,10.40
2022-12-20T22:35:54.098Z,10.40
2022-12-20T22:38:20.771Z,10.40
2022-12-20T22:40:47.428Z,10.40
2022-12-20T22:43:14.082Z,10.40
2022-12-20T22:45:41.479Z,10.40
2022-12-20T22:48:14.269Z,10.30
2022-12-20T22:50:40.867Z,10.40
2022-12-20T22:53:07.495Z,10.30
2022-12-20T22:55:34.704Z,10.30
2022-12-20T22:58:01.321Z,10.30
2022-12-20T23:00:28.077Z,10.30
2022-12-20T23:02:54.805Z,10.20
2022-12-20T23:05:21.559Z,10.20
2022-12-20T23:07:48.265Z,10.20
2022-12-20T23:10:37.024Z,10.20
2022-12-20T23:13:22.408Z,10.20
2022-12-20T23:15:49.087Z,10.20
2022-12-20T23:18:15.705Z,10.20
2022-12-20T23:21:01.311Z,10.10
2022-12-20T23:23:27.946Z,10.10
2022-12-20T23:25:54.580Z,10.10
2022-12-20T23:28:21.217Z,10.10
2022-12-20T23:30:47.801Z,10.10
2022-12-20T23:33:14.441Z,10.10
2022-12-20T23:35:41.069Z,10.10
2022-12-20T23:38:07.761Z,10.20
2022-12-20T23:40:34.376Z,10.20
2022-12-20T23:43:01.053Z,10.20
2022-12-20T23:45:27.757Z,10.20
2022-12-20T23:47:54.394Z,10.20
2022-12-20T23:50:21.092Z,10.10
2022-12-20T23:52:47.740Z,10.10
2022-12-20T23:55:14.439Z,10.10
2022-12-20T23:57:41.098Z,10.10
